Saturday, January 20, 2018, 8:19 AM EST
Back to Local

KUCP, New Castle, New Castle Municipal Airport

Location: Edinburg, PA, United States Lat: 41.025
Local Time: 8:19 AM EST (13:19 GMT) Lon: -80.413
Time Zone: US/Eastern Elev: 1072 ft

Show me the last for .
Show Decoded

2018-01-20 06:56 METAR KUCP 201156Z AUTO 21006KT 10SM CLR 01/M05 A2997 RMK AO2 SLP175 T00111050
                 10017 20000 53011 =
2018-01-20 05:56 METAR KUCP 201056Z AUTO VRB06KT 10SM CLR 01/M05 A2996 RMK AO2 SLP171 T00111050 =
2018-01-20 04:56 METAR KUCP 200956Z AUTO 21006KT 10SM CLR 02/M05 A2995 RMK AO2 SLP167 T00171050 =
2018-01-20 03:56 METAR KUCP 200856Z AUTO 21008G14KT 180V240 10SM CLR 02/M06 A2994 RMK AO2 SLP163
                 T00171056 50010 =
2018-01-20 01:56 METAR KUCP 200656Z AUTO 21006KT 10SM CLR 01/M07 A2992 RMK AO2 SLP157 T00061067 =
2018-01-20 00:56 METAR KUCP 200556Z AUTO VRB05KT 10SM CLR 00/M07 A2991 RMK AO2 SLP154 T00001067
                 10017 20000 58015 =
2018-01-19 23:56 METAR KUCP 200456Z AUTO VRB03KT 10SM CLR 00/M07 A2993 RMK AO2 SLP160 T00001072
                 400391078 =
2018-01-19 22:56 METAR KUCP 200356Z AUTO VRB06KT 10SM CLR 00/M08 A2994 RMK AO2 SLP166 T00001083 =
2018-01-19 21:56 METAR KUCP 200256Z AUTO VRB05KT 10SM CLR 01/M08 A2995 RMK AO2 SLP171 T00061078
                 56011 =
2018-01-19 20:56 METAR KUCP 200156Z AUTO 19007G14KT 10SM CLR 01/M08 A2996 RMK AO2 SLP174
                 T00061078 =
2018-01-19 19:56 METAR KUCP 200056Z AUTO 18005KT 10SM CLR 01/M08 A2997 RMK AO2 SLP179 T00061078 =
2018-01-19 18:56 METAR KUCP 192356Z AUTO VRB04KT 10SM CLR 02/M08 A2999 RMK AO2 SLP184 T00171078
                 10039 20011 51004 =
2018-01-19 17:56 METAR KUCP 192256Z AUTO 19005KT 10SM CLR 02/M08 A2999 RMK AO2 SLP183 T00171078 =
2018-01-19 16:56 METAR KUCP 192156Z AUTO VRB05KT 10SM CLR 03/M08 A2998 RMK AO2 SLP182 T00281078 =
2018-01-19 15:56 METAR KUCP 192056Z AUTO 22009G14KT 190V260 10SM CLR 04/M08 A2998 RMK AO2 SLP178
                 T00391078 56018 =
2018-01-19 14:56 METAR KUCP 191956Z AUTO VRB06KT 10SM CLR 03/M08 A2999 RMK AO2 SLP181 T00331078 =
2018-01-19 13:56 METAR KUCP 191856Z AUTO 21008KT 10SM CLR 02/M08 A3000 RMK AO2 SLP187 T00171083 =
2018-01-19 12:56 METAR KUCP 191756Z AUTO VRB05KT 10SM CLR 01/M09 A3003 RMK AO2 SLP197 T00111089
                 10017 21078 58019 =
2018-01-19 11:56 METAR KUCP 191656Z AUTO 20007KT 150V250 10SM CLR 01/M09 A3007 RMK AO2 SLP210
                 T00111094 =
2018-01-19 10:56 METAR KUCP 191556Z AUTO 21007KT 10SM CLR M01/M09 A3008 RMK AO2 SLP216 T10111089
                 =
2018-01-19 09:56 METAR KUCP 191456Z AUTO 22007KT 10SM CLR M03/M10 A3009 RMK AO2 SLP219 T10331100
                 55004 =
2018-01-19 08:56 METAR KUCP 191356Z AUTO 20007KT 10SM CLR M06/M11 A3008 RMK AO2 SLP219 T10611106
                 =

Support USWX by starting your Amazon purchase here.